sensor_id;sensor_type;location;lat;lon;timestamp;P1;durP1;ratioP1;P2;durP2;ratioP2
27505;SDS011;14939;43.596;1.320;2024-02-23T00:01:45;14.95;;;2.33;;
27505;SDS011;14939;43.596;1.320;2024-02-23T00:04:12;18.00;;;2.90;;
27505;SDS011;14939;43.596;1.320;2024-02-23T00:06:38;19.60;;;3.30;;
27505;SDS011;14939;43.596;1.320;2024-02-23T00:09:04;15.48;;;3.00;;
27505;SDS011;14939;43.596;1.320;2024-02-23T00:11:30;17.90;;;2.92;;
27505;SDS011;14939;43.596;1.320;2024-02-23T00:13:58;17.40;;;2.90;;
27505;SDS011;14939;43.596;1.320;2024-02-23T00:16:24;15.05;;;2.88;;
27505;SDS011;14939;43.596;1.320;2024-02-23T00:18:51;21.38;;;3.85;;
27505;SDS011;14939;43.596;1.320;2024-02-23T00:21:17;18.75;;;3.90;;
27505;SDS011;14939;43.596;1.320;2024-02-23T00:23:42;25.05;;;4.20;;
27505;SDS011;14939;43.596;1.320;2024-02-23T00:26:08;20.60;;;3.70;;
27505;SDS011;14939;43.596;1.320;2024-02-23T00:28:34;16.30;;;3.20;;
27505;SDS011;14939;43.596;1.320;2024-02-23T00:30:59;18.45;;;3.22;;
27505;SDS011;14939;43.596;1.320;2024-02-23T00:33:25;17.30;;;3.25;;
27505;SDS011;14939;43.596;1.320;2024-02-23T00:35:51;16.52;;;3.40;;
27505;SDS011;14939;43.596;1.320;2024-02-23T00:38:17;20.50;;;3.40;;
27505;SDS011;14939;43.596;1.320;2024-02-23T00:40:42;14.75;;;3.03;;
27505;SDS011;14939;43.596;1.320;2024-02-23T00:43:08;17.10;;;2.45;;
27505;SDS011;14939;43.596;1.320;2024-02-23T00:45:34;18.20;;;2.97;;
27505;SDS011;14939;43.596;1.320;2024-02-23T00:47:59;14.77;;;3.17;;
27505;SDS011;14939;43.596;1.320;2024-02-23T00:50:25;16.77;;;2.50;;
27505;SDS011;14939;43.596;1.320;2024-02-23T00:52:53;18.23;;;2.95;;
27505;SDS011;14939;43.596;1.320;2024-02-23T00:55:19;21.23;;;3.00;;
27505;SDS011;14939;43.596;1.320;2024-02-23T00:57:45;20.08;;;2.95;;
27505;SDS011;14939;43.596;1.320;2024-02-23T01:00:11;17.13;;;3.20;;
27505;SDS011;14939;43.596;1.320;2024-02-23T01:02:37;15.35;;;2.90;;
27505;SDS011;14939;43.596;1.320;2024-02-23T01:05:03;21.13;;;3.00;;
27505;SDS011;14939;43.596;1.320;2024-02-23T01:07:29;18.58;;;2.40;;
27505;SDS011;14939;43.596;1.320;2024-02-23T01:09:55;22.65;;;3.50;;
27505;SDS011;14939;43.596;1.320;2024-02-23T01:12:21;24.75;;;3.35;;
27505;SDS011;14939;43.596;1.320;2024-02-23T01:14:47;19.30;;;3.20;;
27505;SDS011;14939;43.596;1.320;2024-02-23T01:17:13;19.67;;;3.30;;
27505;SDS011;14939;43.596;1.320;2024-02-23T01:19:40;24.50;;;4.18;;
27505;SDS011;14939;43.596;1.320;2024-02-23T01:22:07;17.30;;;3.22;;
27505;SDS011;14939;43.596;1.320;2024-02-23T01:24:33;18.02;;;3.10;;
27505;SDS011;14939;43.596;1.320;2024-02-23T01:26:58;14.00;;;2.42;;
27505;SDS011;14939;43.596;1.320;2024-02-23T01:29:25;16.95;;;2.88;;
27505;SDS011;14939;43.596;1.320;2024-02-23T01:31:51;15.15;;;3.08;;
27505;SDS011;14939;43.596;1.320;2024-02-23T01:34:19;14.48;;;3.03;;
27505;SDS011;14939;43.596;1.320;2024-02-23T01:36:45;18.63;;;2.38;;
27505;SDS011;14939;43.596;1.320;2024-02-23T01:39:11;21.00;;;2.67;;
27505;SDS011;14939;43.596;1.320;2024-02-23T01:41:36;19.40;;;2.67;;
27505;SDS011;14939;43.596;1.320;2024-02-23T01:44:02;21.80;;;2.78;;
27505;SDS011;14939;43.596;1.320;2024-02-23T01:46:28;21.67;;;3.03;;
27505;SDS011;14939;43.596;1.320;2024-02-23T01:48:54;23.40;;;3.30;;
27505;SDS011;14939;43.596;1.320;2024-02-23T01:51:20;20.48;;;2.60;;
27505;SDS011;14939;43.596;1.320;2024-02-23T01:53:46;21.85;;;3.15;;
27505;SDS011;14939;43.596;1.320;2024-02-23T01:56:12;18.55;;;3.13;;
27505;SDS011;14939;43.596;1.320;2024-02-23T01:58:43;16.90;;;2.40;;
27505;SDS011;14939;43.596;1.320;2024-02-23T02:01:09;17.77;;;3.22;;
27505;SDS011;14939;43.596;1.320;2024-02-23T02:03:37;19.52;;;2.92;;
27505;SDS011;14939;43.596;1.320;2024-02-23T02:06:03;16.83;;;2.28;;
27505;SDS011;14939;43.596;1.320;2024-02-23T02:08:34;22.75;;;2.47;;
27505;SDS011;14939;43.596;1.320;2024-02-23T02:11:00;19.83;;;2.50;;
27505;SDS011;14939;43.596;1.320;2024-02-23T02:13:27;19.52;;;3.20;;
27505;SDS011;14939;43.596;1.320;2024-02-23T02:15:54;20.83;;;2.28;;
27505;SDS011;14939;43.596;1.320;2024-02-23T02:18:19;19.30;;;3.00;;
27505;SDS011;14939;43.596;1.320;2024-02-23T02:20:55;15.48;;;2.80;;
27505;SDS011;14939;43.596;1.320;2024-02-23T02:23:21;17.63;;;2.72;;
27505;SDS011;14939;43.596;1.320;2024-02-23T02:25:57;21.30;;;2.63;;
27505;SDS011;14939;43.596;1.320;2024-02-23T02:28:24;13.88;;;2.92;;
27505;SDS011;14939;43.596;1.320;2024-02-23T02:30:53;21.27;;;2.40;;
27505;SDS011;14939;43.596;1.320;2024-02-23T02:33:19;19.65;;;2.83;;
27505;SDS011;14939;43.596;1.320;2024-02-23T02:35:46;16.98;;;2.85;;
27505;SDS011;14939;43.596;1.320;2024-02-23T02:38:11;23.23;;;2.55;;
27505;SDS011;14939;43.596;1.320;2024-02-23T02:40:37;14.73;;;2.45;;
27505;SDS011;14939;43.596;1.320;2024-02-23T02:43:03;10.85;;;2.42;;
27505;SDS011;14939;43.596;1.320;2024-02-23T02:45:29;14.85;;;2.33;;
27505;SDS011;14939;43.596;1.320;2024-02-23T02:47:55;15.38;;;2.38;;
27505;SDS011;14939;43.596;1.320;2024-02-23T02:50:21;16.33;;;2.83;;
27505;SDS011;14939;43.596;1.320;2024-02-23T02:52:47;20.27;;;2.70;;
27505;SDS011;14939;43.596;1.320;2024-02-23T02:55:13;22.15;;;3.70;;
27505;SDS011;14939;43.596;1.320;2024-02-23T02:57:38;18.90;;;2.85;;
27505;SDS011;14939;43.596;1.320;2024-02-23T03:00:04;21.55;;;2.75;;
27505;SDS011;14939;43.596;1.320;2024-02-23T03:02:37;24.63;;;3.28;;
27505;SDS011;14939;43.596;1.320;2024-02-23T03:05:03;21.52;;;2.80;;
27505;SDS011;14939;43.596;1.320;2024-02-23T03:07:29;23.52;;;3.35;;
27505;SDS011;14939;43.596;1.320;2024-02-23T03:09:54;19.85;;;2.92;;
27505;SDS011;14939;43.596;1.320;2024-02-23T03:12:21;15.90;;;2.78;;
27505;SDS011;14939;43.596;1.320;2024-02-23T03:14:46;16.30;;;2.20;;
27505;SDS011;14939;43.596;1.320;2024-02-23T03:17:12;14.63;;;2.03;;
27505;SDS011;14939;43.596;1.320;2024-02-23T03:19:37;19.35;;;2.35;;
27505;SDS011;14939;43.596;1.320;2024-02-23T03:22:03;17.08;;;2.55;;
27505;SDS011;14939;43.596;1.320;2024-02-23T03:24:30;10.57;;;1.77;;
27505;SDS011;14939;43.596;1.320;2024-02-23T03:26:55;14.00;;;2.25;;
27505;SDS011;14939;43.596;1.320;2024-02-23T03:29:21;15.60;;;1.83;;
27505;SDS011;14939;43.596;1.320;2024-02-23T03:31:49;15.35;;;2.05;;
27505;SDS011;14939;43.596;1.320;2024-02-23T03:34:15;16.80;;;1.67;;
27505;SDS011;14939;43.596;1.320;2024-02-23T03:36:41;12.88;;;1.45;;
27505;SDS011;14939;43.596;1.320;2024-02-23T03:39:06;9.48;;;1.88;;
27505;SDS011;14939;43.596;1.320;2024-02-23T03:41:32;13.73;;;1.80;;
27505;SDS011;14939;43.596;1.320;2024-02-23T03:43:58;13.45;;;1.77;;
27505;SDS011;14939;43.596;1.320;2024-02-23T03:46:24;10.13;;;1.60;;
27505;SDS011;14939;43.596;1.320;2024-02-23T03:48:49;12.43;;;1.88;;
27505;SDS011;14939;43.596;1.320;2024-02-23T03:51:15;9.98;;;1.42;;
27505;SDS011;14939;43.596;1.320;2024-02-23T03:53:41;16.10;;;1.70;;
27505;SDS011;14939;43.596;1.320;2024-02-23T03:56:07;12.63;;;1.45;;
27505;SDS011;14939;43.596;1.320;2024-02-23T03:58:33;9.05;;;1.55;;
27505;SDS011;14939;43.596;1.320;2024-02-23T04:00:59;9.95;;;1.23;;
27505;SDS011;14939;43.596;1.320;2024-02-23T04:03:24;11.10;;;1.63;;
27505;SDS011;14939;43.596;1.320;2024-02-23T04:05:50;10.93;;;1.67;;
27505;SDS011;14939;43.596;1.320;2024-02-23T04:08:15;11.75;;;1.65;;
27505;SDS011;14939;43.596;1.320;2024-02-23T04:10:41;11.82;;;1.63;;
27505;SDS011;14939;43.596;1.320;2024-02-23T04:13:07;12.70;;;1.50;;
27505;SDS011;14939;43.596;1.320;2024-02-23T04:15:33;11.13;;;1.40;;
27505;SDS011;14939;43.596;1.320;2024-02-23T04:17:59;6.97;;;1.20;;
27505;SDS011;14939;43.596;1.320;2024-02-23T04:20:24;8.52;;;1.58;;
27505;SDS011;14939;43.596;1.320;2024-02-23T04:22:50;9.63;;;1.45;;
27505;SDS011;14939;43.596;1.320;2024-02-23T04:25:16;10.70;;;1.33;;
27505;SDS011;14939;43.596;1.320;2024-02-23T04:27:41;7.50;;;1.20;;
27505;SDS011;14939;43.596;1.320;2024-02-23T04:30:08;11.40;;;1.48;;
27505;SDS011;14939;43.596;1.320;2024-02-23T04:32:35;9.32;;;1.42;;
27505;SDS011;14939;43.596;1.320;2024-02-23T04:35:00;8.05;;;1.35;;
27505;SDS011;14939;43.596;1.320;2024-02-23T04:37:26;9.07;;;1.58;;
27505;SDS011;14939;43.596;1.320;2024-02-23T04:39:52;6.53;;;1.10;;
27505;SDS011;14939;43.596;1.320;2024-02-23T04:42:17;8.40;;;1.58;;
27505;SDS011;14939;43.596;1.320;2024-02-23T04:44:43;9.98;;;1.50;;
27505;SDS011;14939;43.596;1.320;2024-02-23T04:47:09;5.90;;;1.15;;
27505;SDS011;14939;43.596;1.320;2024-02-23T04:49:34;7.25;;;1.10;;
27505;SDS011;14939;43.596;1.320;2024-02-23T04:52:00;3.70;;;1.02;;
27505;SDS011;14939;43.596;1.320;2024-02-23T04:54:26;11.00;;;1.23;;
27505;SDS011;14939;43.596;1.320;2024-02-23T04:56:52;4.32;;;1.15;;
27505;SDS011;14939;43.596;1.320;2024-02-23T04:59:17;3.67;;;0.93;;
27505;SDS011;14939;43.596;1.320;2024-02-23T05:01:43;5.30;;;1.02;;
27505;SDS011;14939;43.596;1.320;2024-02-23T05:04:09;4.43;;;0.93;;
27505;SDS011;14939;43.596;1.320;2024-02-23T05:06:34;5.72;;;1.00;;
27505;SDS011;14939;43.596;1.320;2024-02-23T05:09:00;2.45;;;0.68;;
27505;SDS011;14939;43.596;1.320;2024-02-23T05:11:26;3.47;;;1.13;;
27505;SDS011;14939;43.596;1.320;2024-02-23T05:13:52;4.70;;;0.80;;
27505;SDS011;14939;43.596;1.320;2024-02-23T05:16:18;6.78;;;0.90;;
27505;SDS011;14939;43.596;1.320;2024-02-23T05:18:43;6.35;;;0.98;;
27505;SDS011;14939;43.596;1.320;2024-02-23T05:21:11;5.20;;;0.95;;
27505;SDS011;14939;43.596;1.320;2024-02-23T05:23:37;5.25;;;1.00;;
27505;SDS011;14939;43.596;1.320;2024-02-23T05:26:03;2.85;;;0.70;;
27505;SDS011;14939;43.596;1.320;2024-02-23T05:28:28;4.85;;;0.85;;
27505;SDS011;14939;43.596;1.320;2024-02-23T05:30:54;4.55;;;0.82;;
27505;SDS011;14939;43.596;1.320;2024-02-23T05:33:21;8.15;;;0.80;;
27505;SDS011;14939;43.596;1.320;2024-02-23T05:35:47;7.05;;;0.80;;
27505;SDS011;14939;43.596;1.320;2024-02-23T05:38:15;3.58;;;0.75;;
27505;SDS011;14939;43.596;1.320;2024-02-23T05:40:42;6.07;;;0.80;;
27505;SDS011;14939;43.596;1.320;2024-02-23T05:43:08;6.22;;;1.05;;
27505;SDS011;14939;43.596;1.320;2024-02-23T05:45:33;6.57;;;0.82;;
27505;SDS011;14939;43.596;1.320;2024-02-23T05:47:59;4.68;;;0.82;;
27505;SDS011;14939;43.596;1.320;2024-02-23T05:50:25;4.45;;;0.80;;
27505;SDS011;14939;43.596;1.320;2024-02-23T05:52:50;7.00;;;1.10;;
27505;SDS011;14939;43.596;1.320;2024-02-23T05:55:18;5.00;;;1.05;;
27505;SDS011;14939;43.596;1.320;2024-02-23T05:57:44;5.90;;;0.88;;
27505;SDS011;14939;43.596;1.320;2024-02-23T06:00:10;3.95;;;0.75;;
27505;SDS011;14939;43.596;1.320;2024-02-23T06:02:36;7.82;;;1.08;;
27505;SDS011;14939;43.596;1.320;2024-02-23T06:05:02;6.32;;;1.00;;
27505;SDS011;14939;43.596;1.320;2024-02-23T06:07:29;4.65;;;1.00;;
27505;SDS011;14939;43.596;1.320;2024-02-23T06:09:55;7.70;;;1.52;;
27505;SDS011;14939;43.596;1.320;2024-02-23T06:12:21;6.30;;;0.88;;
27505;SDS011;14939;43.596;1.320;2024-02-23T06:14:47;8.70;;;0.88;;
27505;SDS011;14939;43.596;1.320;2024-02-23T06:17:13;7.80;;;1.05;;
27505;SDS011;14939;43.596;1.320;2024-02-23T06:19:38;7.82;;;1.05;;
27505;SDS011;14939;43.596;1.320;2024-02-23T06:22:04;7.75;;;1.17;;
27505;SDS011;14939;43.596;1.320;2024-02-23T06:24:30;9.43;;;1.30;;
27505;SDS011;14939;43.596;1.320;2024-02-23T06:26:55;7.00;;;1.20;;
27505;SDS011;14939;43.596;1.320;2024-02-23T06:29:23;9.02;;;1.10;;
27505;SDS011;14939;43.596;1.320;2024-02-23T06:31:48;9.45;;;1.33;;
27505;SDS011;14939;43.596;1.320;2024-02-23T06:34:14;6.53;;;1.30;;
27505;SDS011;14939;43.596;1.320;2024-02-23T06:36:41;6.97;;;1.05;;
27505;SDS011;14939;43.596;1.320;2024-02-23T06:39:07;6.50;;;1.23;;
27505;SDS011;14939;43.596;1.320;2024-02-23T06:41:33;6.97;;;0.98;;
27505;SDS011;14939;43.596;1.320;2024-02-23T06:43:59;7.25;;;1.50;;
27505;SDS011;14939;43.596;1.320;2024-02-23T06:46:25;8.45;;;1.60;;
27505;SDS011;14939;43.596;1.320;2024-02-23T06:48:51;9.45;;;2.00;;
27505;SDS011;14939;43.596;1.320;2024-02-23T06:51:16;7.65;;;1.33;;
27505;SDS011;14939;43.596;1.320;2024-02-23T06:53:42;7.60;;;1.40;;
27505;SDS011;14939;43.596;1.320;2024-02-23T06:56:08;7.80;;;1.50;;
27505;SDS011;14939;43.596;1.320;2024-02-23T06:58:33;6.07;;;1.45;;
27505;SDS011;14939;43.596;1.320;2024-02-23T07:01:00;6.38;;;1.13;;
27505;SDS011;14939;43.596;1.320;2024-02-23T07:03:26;5.95;;;1.40;;
27505;SDS011;14939;43.596;1.320;2024-02-23T07:05:51;2.22;;;0.98;;
27505;SDS011;14939;43.596;1.320;2024-02-23T07:08:17;4.50;;;1.08;;
27505;SDS011;14939;43.596;1.320;2024-02-23T07:10:43;4.97;;;1.00;;
27505;SDS011;14939;43.596;1.320;2024-02-23T07:13:09;4.80;;;1.13;;
27505;SDS011;14939;43.596;1.320;2024-02-23T07:15:34;2.42;;;1.00;;
27505;SDS011;14939;43.596;1.320;2024-02-23T07:18:01;6.40;;;1.13;;
27505;SDS011;14939;43.596;1.320;2024-02-23T07:20:27;6.28;;;1.95;;
27505;SDS011;14939;43.596;1.320;2024-02-23T07:22:52;4.78;;;0.80;;
27505;SDS011;14939;43.596;1.320;2024-02-23T07:25:18;2.25;;;0.90;;
27505;SDS011;14939;43.596;1.320;2024-02-23T07:27:47;2.20;;;0.88;;
27505;SDS011;14939;43.596;1.320;2024-02-23T07:30:16;3.03;;;1.10;;
27505;SDS011;14939;43.596;1.320;2024-02-23T07:32:42;3.97;;;1.35;;
27505;SDS011;14939;43.596;1.320;2024-02-23T07:35:09;2.83;;;0.85;;
27505;SDS011;14939;43.596;1.320;2024-02-23T07:37:35;3.28;;;0.98;;
27505;SDS011;14939;43.596;1.320;2024-02-23T07:40:01;4.20;;;0.90;;
27505;SDS011;14939;43.596;1.320;2024-02-23T07:42:29;5.35;;;1.13;;
27505;SDS011;14939;43.596;1.320;2024-02-23T07:44:55;3.85;;;0.82;;
27505;SDS011;14939;43.596;1.320;2024-02-23T07:47:21;4.47;;;1.10;;
27505;SDS011;14939;43.596;1.320;2024-02-23T07:49:47;3.00;;;0.90;;
27505;SDS011;14939;43.596;1.320;2024-02-23T07:52:12;5.32;;;0.80;;
27505;SDS011;14939;43.596;1.320;2024-02-23T07:54:38;4.60;;;0.90;;
27505;SDS011;14939;43.596;1.320;2024-02-23T07:57:04;3.90;;;0.98;;
27505;SDS011;14939;43.596;1.320;2024-02-23T07:59:30;5.93;;;1.00;;
27505;SDS011;14939;43.596;1.320;2024-02-23T08:01:56;5.35;;;1.20;;
27505;SDS011;14939;43.596;1.320;2024-02-23T08:04:22;2.08;;;0.80;;
27505;SDS011;14939;43.596;1.320;2024-02-23T08:06:48;4.57;;;0.90;;
27505;SDS011;14939;43.596;1.320;2024-02-23T08:09:14;5.40;;;1.23;;
27505;SDS011;14939;43.596;1.320;2024-02-23T08:11:39;7.53;;;1.48;;
27505;SDS011;14939;43.596;1.320;2024-02-23T08:14:05;7.55;;;1.63;;
27505;SDS011;14939;43.596;1.320;2024-02-23T08:16:31;3.65;;;1.13;;
27505;SDS011;14939;43.596;1.320;2024-02-23T08:18:57;7.45;;;1.85;;
27505;SDS011;14939;43.596;1.320;2024-02-23T08:21:24;4.10;;;1.27;;
27505;SDS011;14939;43.596;1.320;2024-02-23T08:23:51;3.05;;;1.20;;
27505;SDS011;14939;43.596;1.320;2024-02-23T08:26:16;7.57;;;2.13;;
27505;SDS011;14939;43.596;1.320;2024-02-23T08:28:42;13.55;;;5.53;;
27505;SDS011;14939;43.596;1.320;2024-02-23T08:31:08;11.65;;;5.18;;
27505;SDS011;14939;43.596;1.320;2024-02-23T08:33:33;7.28;;;2.70;;
27505;SDS011;14939;43.596;1.320;2024-02-23T08:35:59;4.85;;;1.83;;
27505;SDS011;14939;43.596;1.320;2024-02-23T08:38:25;4.57;;;1.58;;
27505;SDS011;14939;43.596;1.320;2024-02-23T08:40:50;7.40;;;2.17;;
27505;SDS011;14939;43.596;1.320;2024-02-23T08:43:16;3.92;;;1.30;;
27505;SDS011;14939;43.596;1.320;2024-02-23T08:45:42;5.30;;;1.25;;
27505;SDS011;14939;43.596;1.320;2024-02-23T08:48:07;9.45;;;2.97;;
27505;SDS011;14939;43.596;1.320;2024-02-23T08:50:33;5.55;;;1.77;;
27505;SDS011;14939;43.596;1.320;2024-02-23T08:52:59;9.90;;;1.83;;
27505;SDS011;14939;43.596;1.320;2024-02-23T08:55:25;4.53;;;1.30;;
27505;SDS011;14939;43.596;1.320;2024-02-23T08:57:51;7.00;;;2.17;;
27505;SDS011;14939;43.596;1.320;2024-02-23T09:00:16;6.18;;;2.05;;
27505;SDS011;14939;43.596;1.320;2024-02-23T09:02:42;5.93;;;1.85;;
27505;SDS011;14939;43.596;1.320;2024-02-23T09:05:08;4.22;;;1.30;;
27505;SDS011;14939;43.596;1.320;2024-02-23T09:07:34;9.68;;;2.60;;
27505;SDS011;14939;43.596;1.320;2024-02-23T09:10:00;7.65;;;1.80;;
27505;SDS011;14939;43.596;1.320;2024-02-23T09:12:26;5.28;;;2.63;;
27505;SDS011;14939;43.596;1.320;2024-02-23T09:14:52;7.97;;;3.22;;
27505;SDS011;14939;43.596;1.320;2024-02-23T09:17:18;10.15;;;4.95;;
27505;SDS011;14939;43.596;1.320;2024-02-23T09:19:45;7.00;;;1.27;;
27505;SDS011;14939;43.596;1.320;2024-02-23T09:22:11;3.58;;;1.20;;
27505;SDS011;14939;43.596;1.320;2024-02-23T09:24:40;4.70;;;1.30;;
27505;SDS011;14939;43.596;1.320;2024-02-23T09:27:06;5.28;;;2.47;;
27505;SDS011;14939;43.596;1.320;2024-02-23T09:29:34;5.82;;;1.60;;
27505;SDS011;14939;43.596;1.320;2024-02-23T09:32:00;3.28;;;0.98;;
27505;SDS011;14939;43.596;1.320;2024-02-23T09:34:26;3.70;;;1.17;;
27505;SDS011;14939;43.596;1.320;2024-02-23T09:36:52;4.03;;;2.40;;
27505;SDS011;14939;43.596;1.320;2024-02-23T09:39:18;5.22;;;1.60;;
27505;SDS011;14939;43.596;1.320;2024-02-23T09:41:45;5.47;;;1.40;;
27505;SDS011;14939;43.596;1.320;2024-02-23T09:44:10;6.70;;;2.88;;
27505;SDS011;14939;43.596;1.320;2024-02-23T09:46:40;9.13;;;3.17;;
27505;SDS011;14939;43.596;1.320;2024-02-23T09:49:08;4.72;;;1.15;;
27505;SDS011;14939;43.596;1.320;2024-02-23T09:51:36;3.03;;;0.82;;
27505;SDS011;14939;43.596;1.320;2024-02-23T09:54:04;5.22;;;1.75;;
27505;SDS011;14939;43.596;1.320;2024-02-23T09:56:30;5.40;;;1.90;;
27505;SDS011;14939;43.596;1.320;2024-02-23T09:58:56;4.30;;;1.25;;
27505;SDS011;14939;43.596;1.320;2024-02-23T10:01:26;4.68;;;1.40;;
27505;SDS011;14939;43.596;1.320;2024-02-23T10:03:56;3.97;;;1.05;;
27505;SDS011;14939;43.596;1.320;2024-02-23T10:06:24;5.25;;;1.85;;
27505;SDS011;14939;43.596;1.320;2024-02-23T10:08:50;5.28;;;1.35;;
27505;SDS011;14939;43.596;1.320;2024-02-23T10:11:20;4.38;;;1.17;;
27505;SDS011;14939;43.596;1.320;2024-02-23T10:13:47;5.80;;;1.40;;
27505;SDS011;14939;43.596;1.320;2024-02-23T10:16:14;5.07;;;1.23;;
27505;SDS011;14939;43.596;1.320;2024-02-23T10:18:45;4.20;;;1.33;;
27505;SDS011;14939;43.596;1.320;2024-02-23T10:21:13;5.80;;;1.50;;
27505;SDS011;14939;43.596;1.320;2024-02-23T10:23:40;6.80;;;1.27;;
27505;SDS011;14939;43.596;1.320;2024-02-23T10:26:06;3.85;;;1.00;;
27505;SDS011;14939;43.596;1.320;2024-02-23T10:28:34;2.63;;;1.05;;
27505;SDS011;14939;43.596;1.320;2024-02-23T10:31:03;6.95;;;2.00;;
27505;SDS011;14939;43.596;1.320;2024-02-23T10:33:30;4.55;;;1.17;;
27505;SDS011;14939;43.596;1.320;2024-02-23T10:35:56;5.68;;;1.77;;
27505;SDS011;14939;43.596;1.320;2024-02-23T10:38:23;4.95;;;1.20;;
27505;SDS011;14939;43.596;1.320;2024-02-23T10:40:51;6.47;;;1.50;;
27505;SDS011;14939;43.596;1.320;2024-02-23T10:43:21;3.05;;;0.93;;
27505;SDS011;14939;43.596;1.320;2024-02-23T10:45:56;3.33;;;0.95;;
27505;SDS011;14939;43.596;1.320;2024-02-23T10:48:24;3.40;;;0.93;;
27505;SDS011;14939;43.596;1.320;2024-02-23T10:50:52;3.17;;;0.95;;
27505;SDS011;14939;43.596;1.320;2024-02-23T10:53:18;4.38;;;0.90;;
27505;SDS011;14939;43.596;1.320;2024-02-23T10:55:44;4.28;;;1.00;;
27505;SDS011;14939;43.596;1.320;2024-02-23T10:58:11;4.57;;;1.10;;
27505;SDS011;14939;43.596;1.320;2024-02-23T11:00:38;5.85;;;1.25;;
27505;SDS011;14939;43.596;1.320;2024-02-23T11:03:04;4.68;;;1.10;;
27505;SDS011;14939;43.596;1.320;2024-02-23T11:05:31;2.88;;;1.08;;
27505;SDS011;14939;43.596;1.320;2024-02-23T11:07:58;5.63;;;2.17;;
27505;SDS011;14939;43.596;1.320;2024-02-23T11:10:24;4.50;;;1.38;;
27505;SDS011;14939;43.596;1.320;2024-02-23T11:12:59;4.78;;;1.27;;
27505;SDS011;14939;43.596;1.320;2024-02-23T11:15:28;4.63;;;1.58;;
27505;SDS011;14939;43.596;1.320;2024-02-23T11:17:54;8.00;;;2.30;;
27505;SDS011;14939;43.596;1.320;2024-02-23T11:20:20;9.15;;;2.10;;
27505;SDS011;14939;43.596;1.320;2024-02-23T11:22:53;5.32;;;2.22;;
27505;SDS011;14939;43.596;1.320;2024-02-23T11:25:19;5.63;;;1.55;;
27505;SDS011;14939;43.596;1.320;2024-02-23T11:27:48;7.65;;;1.60;;
27505;SDS011;14939;43.596;1.320;2024-02-23T11:30:16;6.95;;;1.65;;
27505;SDS011;14939;43.596;1.320;2024-02-23T11:32:46;4.68;;;1.33;;
27505;SDS011;14939;43.596;1.320;2024-02-23T11:35:16;5.72;;;1.98;;
27505;SDS011;14939;43.596;1.320;2024-02-23T11:40:25;8.32;;;2.35;;
27505;SDS011;14939;43.596;1.320;2024-02-23T11:42:51;5.35;;;1.50;;
27505;SDS011;14939;43.596;1.320;2024-02-23T11:45:17;5.50;;;1.40;;
27505;SDS011;14939;43.596;1.320;2024-02-23T11:47:43;4.97;;;1.48;;
27505;SDS011;14939;43.596;1.320;2024-02-23T11:50:09;3.78;;;1.48;;
27505;SDS011;14939;43.596;1.320;2024-02-23T11:52:38;4.15;;;1.20;;
27505;SDS011;14939;43.596;1.320;2024-02-23T11:55:04;10.50;;;3.60;;
27505;SDS011;14939;43.596;1.320;2024-02-23T11:57:33;11.15;;;4.63;;
27505;SDS011;14939;43.596;1.320;2024-02-23T12:00:03;4.93;;;2.50;;
27505;SDS011;14939;43.596;1.320;2024-02-23T12:02:31;20.42;;;9.57;;
27505;SDS011;14939;43.596;1.320;2024-02-23T12:05:00;7.80;;;3.63;;
27505;SDS011;14939;43.596;1.320;2024-02-23T12:07:26;5.30;;;1.70;;
27505;SDS011;14939;43.596;1.320;2024-02-23T12:09:54;3.65;;;1.50;;
27505;SDS011;14939;43.596;1.320;2024-02-23T12:12:20;8.65;;;3.05;;
27505;SDS011;14939;43.596;1.320;2024-02-23T12:14:46;4.38;;;2.10;;
27505;SDS011;14939;43.596;1.320;2024-02-23T12:17:12;8.35;;;3.33;;
27505;SDS011;14939;43.596;1.320;2024-02-23T12:19:39;5.85;;;2.40;;
27505;SDS011;14939;43.596;1.320;2024-02-23T12:22:05;3.72;;;1.60;;
27505;SDS011;14939;43.596;1.320;2024-02-23T12:24:31;1.98;;;1.00;;
27505;SDS011;14939;43.596;1.320;2024-02-23T12:26:56;3.83;;;2.28;;
27505;SDS011;14939;43.596;1.320;2024-02-23T12:29:23;4.88;;;2.13;;
27505;SDS011;14939;43.596;1.320;2024-02-23T12:31:49;2.47;;;1.25;;
27505;SDS011;14939;43.596;1.320;2024-02-23T12:34:15;3.08;;;1.55;;
27505;SDS011;14939;43.596;1.320;2024-02-23T12:36:41;2.80;;;1.88;;
27505;SDS011;14939;43.596;1.320;2024-02-23T12:39:07;3.72;;;1.65;;
27505;SDS011;14939;43.596;1.320;2024-02-23T12:41:33;5.68;;;2.67;;
27505;SDS011;14939;43.596;1.320;2024-02-23T12:43:59;4.95;;;2.40;;
27505;SDS011;14939;43.596;1.320;2024-02-23T12:46:25;2.42;;;1.40;;
27505;SDS011;14939;43.596;1.320;2024-02-23T12:48:50;2.45;;;1.15;;
27505;SDS011;14939;43.596;1.320;2024-02-23T12:51:16;2.40;;;1.00;;
27505;SDS011;14939;43.596;1.320;2024-02-23T12:53:43;2.72;;;0.80;;
27505;SDS011;14939;43.596;1.320;2024-02-23T12:56:10;4.47;;;1.17;;
27505;SDS011;14939;43.596;1.320;2024-02-23T12:58:39;4.72;;;1.60;;
27505;SDS011;14939;43.596;1.320;2024-02-23T13:01:08;3.90;;;2.15;;
27505;SDS011;14939;43.596;1.320;2024-02-23T13:03:35;8.10;;;1.88;;
27505;SDS011;14939;43.596;1.320;2024-02-23T13:06:03;5.05;;;2.03;;
27505;SDS011;14939;43.596;1.320;2024-02-23T13:08:30;6.65;;;3.22;;
27505;SDS011;14939;43.596;1.320;2024-02-23T13:10:56;4.88;;;1.85;;
27505;SDS011;14939;43.596;1.320;2024-02-23T13:13:22;3.40;;;1.50;;
27505;SDS011;14939;43.596;1.320;2024-02-23T13:15:48;6.75;;;3.83;;
27505;SDS011;14939;43.596;1.320;2024-02-23T13:18:15;7.40;;;2.50;;
27505;SDS011;14939;43.596;1.320;2024-02-23T13:20:41;3.75;;;1.05;;
27505;SDS011;14939;43.596;1.320;2024-02-23T13:23:07;4.00;;;1.70;;
27505;SDS011;14939;43.596;1.320;2024-02-23T13:25:37;4.97;;;1.55;;
27505;SDS011;14939;43.596;1.320;2024-02-23T13:28:04;3.90;;;1.27;;
27505;SDS011;14939;43.596;1.320;2024-02-23T13:30:30;8.48;;;1.83;;
27505;SDS011;14939;43.596;1.320;2024-02-23T13:32:56;3.15;;;0.90;;
27505;SDS011;14939;43.596;1.320;2024-02-23T13:35:22;9.07;;;3.28;;
27505;SDS011;14939;43.596;1.320;2024-02-23T13:37:48;5.70;;;1.33;;
27505;SDS011;14939;43.596;1.320;2024-02-23T13:40:13;4.32;;;0.70;;
27505;SDS011;14939;43.596;1.320;2024-02-23T13:42:39;4.53;;;1.88;;
27505;SDS011;14939;43.596;1.320;2024-02-23T13:45:05;22.05;;;5.40;;
27505;SDS011;14939;43.596;1.320;2024-02-23T13:47:32;5.55;;;1.27;;
27505;SDS011;14939;43.596;1.320;2024-02-23T13:49:58;4.07;;;1.13;;
27505;SDS011;14939;43.596;1.320;2024-02-23T13:52:24;2.53;;;1.20;;
27505;SDS011;14939;43.596;1.320;2024-02-23T13:54:50;1.13;;;0.60;;
27505;SDS011;14939;43.596;1.320;2024-02-23T13:57:16;4.05;;;1.55;;
27505;SDS011;14939;43.596;1.320;2024-02-23T13:59:42;3.53;;;0.90;;
27505;SDS011;14939;43.596;1.320;2024-02-23T14:02:07;6.55;;;2.35;;
27505;SDS011;14939;43.596;1.320;2024-02-23T14:04:33;6.65;;;1.90;;
27505;SDS011;14939;43.596;1.320;2024-02-23T14:07:00;4.72;;;1.83;;
27505;SDS011;14939;43.596;1.320;2024-02-23T14:09:26;5.57;;;1.90;;
27505;SDS011;14939;43.596;1.320;2024-02-23T14:11:52;2.58;;;0.70;;
27505;SDS011;14939;43.596;1.320;2024-02-23T14:14:17;3.15;;;1.23;;
27505;SDS011;14939;43.596;1.320;2024-02-23T14:16:45;3.45;;;0.95;;
27505;SDS011;14939;43.596;1.320;2024-02-23T14:19:11;1.83;;;0.82;;
27505;SDS011;14939;43.596;1.320;2024-02-23T14:21:36;1.35;;;0.70;;
27505;SDS011;14939;43.596;1.320;2024-02-23T14:24:02;1.85;;;0.60;;
27505;SDS011;14939;43.596;1.320;2024-02-23T14:26:29;2.15;;;0.70;;
27505;SDS011;14939;43.596;1.320;2024-02-23T14:28:54;3.47;;;0.77;;
27505;SDS011;14939;43.596;1.320;2024-02-23T14:31:20;2.60;;;0.80;;
27505;SDS011;14939;43.596;1.320;2024-02-23T14:33:46;2.53;;;0.73;;
27505;SDS011;14939;43.596;1.320;2024-02-23T14:36:15;3.75;;;0.80;;
27505;SDS011;14939;43.596;1.320;2024-02-23T14:38:41;3.22;;;0.80;;
27505;SDS011;14939;43.596;1.320;2024-02-23T14:41:07;3.92;;;1.00;;